Time;durP1;ratioP1;P1;durP2;ratioP2;P2;SDS_P1;SDS_P2;PMS_P1;PMS_P2;Temp;Humidity;BMP_temperature;BMP_pressure;BME280_temperature;BME280_humidity;BME280_pressure;Samples;Min_cycle;Max_cycle;Signal;HPM_P1;HPM_P2
2022/04/24 00:01:11;;;;;;;21.42;17.98;;;14.10;99.50;;;;;;5051018;28;20037;-56
2022/04/24 00:03:37;;;;;;;21.20;17.38;;;14.00;99.60;;;;;;5051345;28;20363;-56
2022/04/24 00:06:03;;;;;;;21.33;17.35;;;14.00;99.80;;;;;;5050809;28;20025;-57
2022/04/24 00:08:29;;;;;;;27.13;17.45;;;14.00;99.90;;;;;;5049525;28;20025;-56
2022/04/24 00:10:55;;;;;;;19.35;17.08;;;13.90;99.90;;;;;;5050455;28;20025;-55
2022/04/24 00:13:20;;;;;;;23.95;17.67;;;14.00;99.90;;;;;;5051113;28;20494;-56
2022/04/24 00:15:46;;;;;;;20.05;16.58;;;14.00;99.60;;;;;;5050936;28;20025;-55
2022/04/24 00:18:12;;;;;;;20.52;16.83;;;14.00;99.50;;;;;;5049413;28;20037;-56
2022/04/24 00:20:38;;;;;;;21.45;16.88;;;14.00;99.20;;;;;;5050764;28;20025;-56
2022/04/24 00:23:04;;;;;;;17.92;15.75;;;14.10;98.90;;;;;;5050745;28;20076;-55
2022/04/24 00:25:29;;;;;;;22.30;16.50;;;14.20;98.60;;;;;;5050931;28;20113;-55
2022/04/24 00:27:55;;;;;;;20.38;15.65;;;14.20;98.40;;;;;;5050522;28;20554;-56
2022/04/24 00:30:21;;;;;;;20.30;15.38;;;14.20;98.20;;;;;;5050310;28;20100;-56
2022/04/24 00:32:46;;;;;;;20.00;15.55;;;14.20;98.10;;;;;;5050292;28;20068;-56
2022/04/24 00:35:12;;;;;;;21.60;14.68;;;14.30;97.80;;;;;;5051021;28;20120;-56
2022/04/24 00:37:37;;;;;;;18.23;14.90;;;14.20;97.50;;;;;;5049283;28;20025;-57
2022/04/24 00:40:04;;;;;;;18.52;13.50;;;14.20;97.30;;;;;;5050684;28;20029;-56
2022/04/24 00:42:29;;;;;;;15.45;13.52;;;14.30;97.10;;;;;;5050708;28;20087;-55
2022/04/24 00:44:56;;;;;;;18.45;13.82;;;14.30;96.80;;;;;;5050234;28;20478;-57
2022/04/24 00:47:23;;;;;;;15.43;12.88;;;14.30;96.80;;;;;;5050043;28;20021;-56
2022/04/24 00:49:50;;;;;;;17.88;14.10;;;14.30;96.70;;;;;;5050332;28;20108;-55
2022/04/24 00:52:16;;;;;;;17.13;13.70;;;14.30;96.40;;;;;;5050557;28;20053;-56
2022/04/24 00:54:42;;;;;;;18.38;13.13;;;14.30;96.30;;;;;;5050249;28;20382;-55
2022/04/24 00:57:09;;;;;;;17.95;13.55;;;14.20;96.20;;;;;;5050492;28;20032;-57
2022/04/24 00:59:35;;;;;;;18.15;13.60;;;14.20;96.30;;;;;;5050184;28;20028;-56
2022/04/24 01:02:03;;;;;;;15.30;12.52;;;14.20;96.30;;;;;;5050495;28;20382;-56
2022/04/24 01:04:29;;;;;;;15.07;12.15;;;14.10;96.20;;;;;;5065742;28;20025;-56
2022/04/24 01:06:54;;;;;;;16.67;12.52;;;14.10;96.20;;;;;;5050519;28;20680;-56
2022/04/24 01:09:22;;;;;;;15.18;12.27;;;14.10;96.00;;;;;;5049867;28;20025;-56
2022/04/24 01:11:50;;;;;;;14.05;11.68;;;14.00;96.00;;;;;;5050046;28;20276;-56
2022/04/24 01:14:17;;;;;;;13.75;11.55;;;14.00;95.90;;;;;;5050248;28;20025;-55
2022/04/24 01:16:44;;;;;;;14.35;11.85;;;14.00;95.70;;;;;;5050206;28;20024;-56
2022/04/24 01:19:10;;;;;;;13.45;10.77;;;13.90;95.70;;;;;;5050101;28;20029;-57
2022/04/24 01:21:36;;;;;;;13.05;10.57;;;13.90;95.60;;;;;;5050199;28;20405;-56
2022/04/24 01:24:06;;;;;;;13.40;11.00;;;13.90;95.40;;;;;;5052477;28;20029;-57
2022/04/24 01:26:32;;;;;;;11.60;10.40;;;13.90;95.30;;;;;;5054374;28;20525;-57
2022/04/24 01:28:58;;;;;;;13.40;10.52;;;13.90;95.20;;;;;;5054133;28;20048;-56
2022/04/24 01:31:24;;;;;;;11.77;9.45;;;14.00;95.00;;;;;;5054275;28;20354;-57
2022/04/24 01:33:49;;;;;;;10.55;9.23;;;13.90;94.70;;;;;;5054595;28;20043;-56
2022/04/24 01:36:15;;;;;;;11.32;9.85;;;13.90;94.80;;;;;;5069600;28;20021;-57
2022/04/24 01:38:41;;;;;;;10.25;8.90;;;13.90;94.50;;;;;;5069768;28;20497;-56
2022/04/24 01:41:08;;;;;;;11.80;8.63;;;14.00;94.50;;;;;;5052373;28;20053;-56
2022/04/24 01:43:33;;;;;;;11.70;8.68;;;14.00;94.20;;;;;;5053772;28;20508;-55
2022/04/24 01:45:59;;;;;;;12.32;8.73;;;14.00;94.10;;;;;;5053608;28;20021;-55
2022/04/24 01:48:25;;;;;;;16.63;8.98;;;14.00;94.00;;;;;;5069206;28;20075;-55
2022/04/24 01:50:54;;;;;;;14.20;9.32;;;13.90;94.10;;;;;;5053870;28;20028;-56
2022/04/24 01:53:19;;;;;;;12.27;8.93;;;13.90;94.20;;;;;;5053724;28;20090;-57
2022/04/24 01:55:45;;;;;;;10.35;8.13;;;13.90;94.20;;;;;;5053579;28;20060;-55
2022/04/24 01:58:11;;;;;;;10.23;8.05;;;13.80;94.00;;;;;;5053581;28;20037;-57
2022/04/24 02:00:37;;;;;;;11.98;8.40;;;13.80;94.00;;;;;;5053450;28;20608;-56
2022/04/24 02:03:02;;;;;;;11.90;7.72;;;13.80;94.30;;;;;;5053750;28;20025;-56
2022/04/24 02:05:28;;;;;;;8.57;7.68;;;13.80;94.00;;;;;;5053474;28;20056;-56
2022/04/24 02:07:53;;;;;;;8.82;7.65;;;13.80;93.90;;;;;;5053466;28;20025;-56
2022/04/24 02:10:19;;;;;;;8.63;7.25;;;13.70;93.80;;;;;;5053846;28;20032;-56
2022/04/24 02:12:46;;;;;;;9.20;7.80;;;13.70;93.80;;;;;;5053343;28;20036;-56
2022/04/24 02:15:12;;;;;;;11.25;7.20;;;13.70;93.90;;;;;;5053544;28;20502;-56
2022/04/24 02:17:37;;;;;;;9.50;7.22;;;13.70;93.90;;;;;;5053315;28;20087;-55
2022/04/24 02:20:04;;;;;;;8.75;7.18;;;13.60;93.90;;;;;;5068713;28;20033;-56
2022/04/24 02:22:34;;;;;;;9.55;7.20;;;13.60;93.80;;;;;;5053529;28;20557;-58
2022/04/24 02:25:00;;;;;;;9.68;6.72;;;13.50;93.90;;;;;;5052945;28;20459;-56
2022/04/24 02:27:27;;;;;;;11.40;6.70;;;13.50;94.00;;;;;;5052983;28;20036;-56
2022/04/24 02:29:53;;;;;;;8.88;6.55;;;13.40;94.00;;;;;;5052929;28;20071;-56
2022/04/24 02:32:19;;;;;;;8.27;6.82;;;13.40;94.10;;;;;;5053475;28;20137;-56
2022/04/24 02:34:44;;;;;;;7.32;6.22;;;13.30;94.10;;;;;;5054316;28;20080;-56
2022/04/24 02:37:10;;;;;;;8.07;6.53;;;13.20;94.40;;;;;;5055204;28;20033;-56
2022/04/24 02:39:36;;;;;;;9.45;6.93;;;13.20;94.30;;;;;;5056125;28;20051;-56
2022/04/24 02:42:02;;;;;;;7.47;6.38;;;13.10;94.40;;;;;;5069712;28;20029;-56
2022/04/24 02:44:27;;;;;;;7.57;6.40;;;13.00;94.80;;;;;;5054270;28;20492;-56
2022/04/24 02:46:53;;;;;;;7.82;6.78;;;13.00;94.80;;;;;;5055528;28;20091;-55
2022/04/24 02:49:19;;;;;;;17.48;7.15;;;12.90;94.80;;;;;;5055692;28;20116;-55
2022/04/24 02:51:45;;;;;;;9.82;6.47;;;12.90;94.90;;;;;;5055487;28;20029;-56
2022/04/24 02:54:10;;;;;;;9.43;6.28;;;12.80;95.10;;;;;;5055738;28;20013;-56
2022/04/24 02:56:36;;;;;;;8.15;6.35;;;12.80;95.20;;;;;;5054021;28;20060;-56
2022/04/24 02:59:02;;;;;;;7.68;6.10;;;12.70;95.20;;;;;;5055230;28;20437;-56
2022/04/24 03:01:30;;;;;;;8.90;6.50;;;12.70;95.30;;;;;;5054099;28;20036;-56
2022/04/24 03:03:56;;;;;;;9.77;6.65;;;12.70;95.40;;;;;;5054965;28;20041;-56
2022/04/24 03:06:22;;;;;;;7.55;6.28;;;12.70;95.30;;;;;;5054329;28;20060;-57
2022/04/24 03:08:47;;;;;;;8.88;6.75;;;12.60;95.40;;;;;;5068421;28;20498;-56
2022/04/24 03:11:16;;;;;;;7.78;6.80;;;12.60;95.50;;;;;;5054258;28;20093;-56
2022/04/24 03:13:42;;;;;;;6.47;5.78;;;12.60;95.50;;;;;;5053933;28;20044;-56
2022/04/24 03:16:09;;;;;;;9.25;6.50;;;12.50;95.60;;;;;;5054799;28;20029;-56
2022/04/24 03:18:35;;;;;;;7.85;6.40;;;12.50;95.70;;;;;;5054858;28;20040;-56
2022/04/24 03:21:01;;;;;;;7.97;6.45;;;12.50;95.90;;;;;;5054467;28;20110;-56
2022/04/24 03:23:26;;;;;;;9.02;6.75;;;12.50;95.80;;;;;;5054599;28;20060;-56
2022/04/24 03:25:52;;;;;;;7.63;6.30;;;12.50;95.90;;;;;;5054673;28;20492;-55
2022/04/24 03:28:18;;;;;;;10.93;6.47;;;12.40;95.90;;;;;;5069505;28;20155;-56
2022/04/24 03:30:44;;;;;;;7.35;6.00;;;12.40;96.00;;;;;;5054481;28;20021;-55
2022/04/24 03:33:10;;;;;;;7.72;6.30;;;12.40;96.10;;;;;;5054480;28;20075;-55
2022/04/24 03:35:35;;;;;;;8.40;6.35;;;12.30;96.20;;;;;;5054558;28;20378;-55
2022/04/24 03:38:01;;;;;;;7.63;6.78;;;12.30;96.40;;;;;;5053460;28;20036;-55
2022/04/24 03:40:27;;;;;;;11.88;6.75;;;12.20;96.50;;;;;;5054127;28;20079;-55
2022/04/24 03:42:53;;;;;;;9.50;6.50;;;12.20;96.70;;;;;;5054492;28;20060;-56
2022/04/24 03:45:20;;;;;;;9.63;6.57;;;12.10;96.80;;;;;;5052264;28;20497;-55
2022/04/24 03:47:48;;;;;;;9.90;6.97;;;12.10;96.90;;;;;;5054269;28;20025;-55
2022/04/24 03:50:15;;;;;;;10.00;6.63;;;12.10;96.90;;;;;;5054243;28;20501;-55
2022/04/24 03:52:41;;;;;;;8.00;6.47;;;12.10;97.00;;;;;;5054333;28;20028;-56
2022/04/24 03:55:07;;;;;;;7.80;6.53;;;12.10;97.10;;;;;;5054368;28;20024;-55
2022/04/24 03:57:33;;;;;;;9.23;6.80;;;12.10;97.10;;;;;;5055180;28;20541;-56
2022/04/24 03:59:59;;;;;;;9.13;6.90;;;12.20;97.00;;;;;;5055353;28;20029;-55
2022/04/24 04:02:25;;;;;;;8.02;6.75;;;12.20;97.00;;;;;;5054240;28;20036;-55
2022/04/24 04:04:51;;;;;;;7.05;6.15;;;12.20;96.90;;;;;;5053851;28;20017;-55
2022/04/24 04:07:16;;;;;;;7.90;6.43;;;12.30;96.80;;;;;;5053953;28;20020;-55
2022/04/24 04:09:45;;;;;;;7.15;6.03;;;12.30;96.80;;;;;;5054441;28;20056;-55
2022/04/24 04:12:10;;;;;;;7.28;6.55;;;12.40;96.80;;;;;;5052826;28;20033;-55
2022/04/24 04:14:36;;;;;;;9.18;5.90;;;12.40;96.80;;;;;;5054409;28;20024;-55
2022/04/24 04:17:03;;;;;;;10.77;6.75;;;12.40;96.80;;;;;;5053819;28;20048;-57
2022/04/24 04:19:29;;;;;;;9.20;6.55;;;12.40;96.80;;;;;;5052543;28;20033;-56
2022/04/24 04:21:54;;;;;;;9.25;6.45;;;12.40;96.60;;;;;;5053858;28;20028;-56
2022/04/24 04:24:20;;;;;;;9.20;6.40;;;12.50;96.70;;;;;;5053886;28;20021;-55
2022/04/24 04:26:46;;;;;;;9.02;6.20;;;12.50;96.70;;;;;;5052833;28;20025;-55
2022/04/24 04:29:11;;;;;;;7.30;6.15;;;12.50;96.60;;;;;;5054526;28;20108;-55
2022/04/24 04:31:37;;;;;;;8.10;6.45;;;12.40;96.70;;;;;;5053356;28;20075;-56
2022/04/24 04:34:03;;;;;;;7.30;6.00;;;12.50;96.80;;;;;;5052886;28;20049;-55
2022/04/24 04:36:29;;;;;;;8.90;7.10;;;12.50;96.70;;;;;;5051936;28;20033;-55
2022/04/24 04:38:54;;;;;;;6.60;5.97;;;12.60;96.70;;;;;;5051578;28;20486;-56
2022/04/24 04:41:20;;;;;;;7.00;6.30;;;12.60;96.60;;;;;;5051757;28;20036;-55
2022/04/24 04:43:46;;;;;;;7.28;6.40;;;12.60;96.50;;;;;;5052944;28;20025;-56
2022/04/24 04:46:11;;;;;;;8.38;6.65;;;12.60;96.60;;;;;;5051379;28;20071;-56
2022/04/24 04:48:37;;;;;;;8.45;6.88;;;12.60;96.60;;;;;;5051191;28;20104;-56
2022/04/24 04:51:03;;;;;;;8.68;6.43;;;12.70;96.60;;;;;;5052871;28;20033;-56
2022/04/24 04:53:28;;;;;;;7.60;6.22;;;12.70;96.40;;;;;;5051464;28;20306;-56
2022/04/24 04:55:54;;;;;;;7.57;6.88;;;12.70;96.50;;;;;;5050667;28;20028;-56
2022/04/24 04:58:19;;;;;;;9.65;6.38;;;12.70;96.50;;;;;;5050596;28;20061;-55
2022/04/24 05:00:45;;;;;;;7.72;6.70;;;12.70;96.50;;;;;;5051198;28;20029;-55
2022/04/24 05:03:11;;;;;;;10.48;6.95;;;12.70;96.50;;;;;;5051580;28;20032;-56
2022/04/24 05:05:36;;;;;;;7.47;6.40;;;12.70;96.50;;;;;;5052188;28;20473;-55
2022/04/24 05:08:02;;;;;;;8.23;6.85;;;12.70;96.60;;;;;;5051599;28;20025;-55
2022/04/24 05:10:28;;;;;;;7.10;6.40;;;12.70;96.60;;;;;;5051491;28;20052;-55
2022/04/24 05:12:53;;;;;;;7.00;6.28;;;12.70;96.80;;;;;;5052179;28;20037;-56
2022/04/24 05:15:21;;;;;;;13.50;7.28;;;12.70;96.70;;;;;;5051819;28;20443;-55
2022/04/24 05:17:47;;;;;;;8.00;6.57;;;12.70;96.60;;;;;;5052406;28;20029;-56
2022/04/24 05:20:13;;;;;;;8.13;6.78;;;12.70;96.60;;;;;;5052802;28;20024;-55
2022/04/24 05:22:39;;;;;;;11.73;7.05;;;12.70;96.70;;;;;;5053118;28;20022;-54
2022/04/24 05:25:07;;;;;;;9.75;7.05;;;12.60;96.70;;;;;;5050843;28;20053;-55
2022/04/24 05:27:33;;;;;;;10.55;6.60;;;12.60;96.80;;;;;;5052804;28;20040;-55
2022/04/24 05:29:58;;;;;;;7.65;6.85;;;12.70;96.80;;;;;;5052768;28;20025;-55
2022/04/24 05:32:24;;;;;;;8.18;7.38;;;12.70;96.70;;;;;;5053022;28;20096;-55
2022/04/24 05:34:50;;;;;;;7.55;6.75;;;12.70;97.00;;;;;;5052759;28;20045;-55
2022/04/24 05:37:16;;;;;;;7.35;6.65;;;12.70;96.60;;;;;;5052978;28;20481;-56
2022/04/24 05:39:42;;;;;;;9.23;6.95;;;12.70;96.60;;;;;;5052453;28;20490;-55
2022/04/24 05:42:07;;;;;;;7.72;6.90;;;12.80;96.50;;;;;;5050835;28;20040;-56
2022/04/24 05:44:33;;;;;;;11.48;7.35;;;12.90;96.40;;;;;;5051815;28;20025;-56
2022/04/24 05:46:59;;;;;;;8.05;7.25;;;13.00;96.20;;;;;;5051750;28;20036;-56
2022/04/24 05:49:25;;;;;;;8.23;6.97;;;13.00;96.10;;;;;;5052073;28;20421;-56
2022/04/24 05:51:50;;;;;;;7.30;6.60;;;13.00;96.50;;;;;;5052059;28;20029;-56
2022/04/24 05:54:16;;;;;;;7.40;6.70;;;13.10;96.10;;;;;;5052109;28;20037;-56
2022/04/24 05:56:42;;;;;;;8.23;7.03;;;13.20;95.90;;;;;;5052752;28;20029;-56
2022/04/24 05:59:11;;;;;;;7.28;6.57;;;13.20;95.80;;;;;;5052324;28;20029;-55
2022/04/24 06:01:36;;;;;;;7.68;6.97;;;13.20;95.90;;;;;;5051049;28;20099;-56
2022/04/24 06:04:02;;;;;;;10.88;7.25;;;13.30;95.70;;;;;;5051669;28;20053;-56
2022/04/24 06:06:32;;;;;;;8.77;7.07;;;13.30;95.70;;;;;;5050240;28;20029;-56
2022/04/24 06:08:58;;;;;;;8.73;7.20;;;13.40;95.40;;;;;;5050695;28;20079;-57
2022/04/24 06:11:23;;;;;;;8.13;7.32;;;13.40;95.20;;;;;;5055494;28;20025;-56
2022/04/24 06:13:49;;;;;;;7.53;6.88;;;13.40;95.30;;;;;;5056492;28;20025;-56
2022/04/24 06:16:15;;;;;;;9.32;7.70;;;13.50;95.10;;;;;;5056102;28;20086;-56
2022/04/24 06:18:40;;;;;;;8.93;7.35;;;13.50;95.00;;;;;;5055371;28;20104;-56
2022/04/24 06:21:07;;;;;;;9.30;7.43;;;13.50;95.10;;;;;;5055753;28;20040;-56
2022/04/24 06:23:32;;;;;;;8.73;7.70;;;13.50;94.90;;;;;;5053788;28;20021;-55
2022/04/24 06:25:58;;;;;;;8.75;7.30;;;13.60;95.10;;;;;;5053341;28;20036;-55
2022/04/24 06:28:24;;;;;;;11.27;7.85;;;13.70;95.10;;;;;;5054100;28;20025;-56
2022/04/24 06:30:50;;;;;;;10.40;7.15;;;13.70;95.10;;;;;;5053443;28;20549;-56
2022/04/24 06:33:17;;;;;;;8.55;7.75;;;13.70;94.90;;;;;;5054018;28;20041;-56
2022/04/24 06:35:45;;;;;;;9.52;8.50;;;13.70;94.80;;;;;;5053690;28;20025;-56
2022/04/24 06:38:11;;;;;;;10.20;8.48;;;13.70;95.00;;;;;;5052614;28;20498;-55
2022/04/24 06:40:37;;;;;;;9.55;7.80;;;13.70;95.10;;;;;;5052706;28;20029;-55
2022/04/24 06:43:07;;;;;;;8.70;7.80;;;13.60;95.00;;;;;;5052920;28;20064;-56
2022/04/24 06:45:37;;;;;;;10.50;8.60;;;13.70;94.90;;;;;;5069222;28;20028;-56
2022/04/24 06:48:10;;;;;;;9.57;8.57;;;13.70;95.00;;;;;;5052687;28;20028;-56
2022/04/24 06:50:38;;;;;;;9.13;8.20;;;13.70;95.10;;;;;;5053506;28;20158;-56
2022/04/24 06:53:09;;;;;;;10.60;8.77;;;13.70;95.20;;;;;;5052839;28;20510;-55
2022/04/24 06:55:40;;;;;;;9.68;8.65;;;13.80;95.10;;;;;;5053470;28;20106;-55
2022/04/24 06:58:07;;;;;;;9.10;8.30;;;13.80;95.10;;;;;;5053496;28;20033;-55
2022/04/24 07:00:36;;;;;;;11.27;8.55;;;13.70;95.20;;;;;;5052270;28;20024;-55
2022/04/24 07:03:20;;;;;;;10.20;8.60;;;13.90;95.40;;;;;;5053225;28;20394;-55
2022/04/24 07:05:47;;;;;;;9.10;8.00;;;13.90;95.00;;;;;;5052451;28;20382;-54
2022/04/24 07:08:13;;;;;;;9.02;8.13;;;13.90;95.30;;;;;;5052469;28;20013;-54
2022/04/24 07:10:42;;;;;;;9.00;8.20;;;14.10;94.80;;;;;;5053492;28;20382;-55
2022/04/24 07:13:07;;;;;;;11.07;9.40;;;14.30;94.20;;;;;;5050951;28;20021;-55
2022/04/24 07:15:36;;;;;;;11.35;8.73;;;14.80;93.20;;;;;;5052000;28;20033;-55
2022/04/24 07:18:03;;;;;;;11.07;8.20;;;15.80;92.20;;;;;;5052198;28;20048;-54
2022/04/24 07:20:29;;;;;;;9.95;8.25;;;16.60;90.60;;;;;;5050945;28;20033;-57
2022/04/24 07:23:01;;;;;;;8.32;7.38;;;17.50;88.10;;;;;;5051799;28;20028;-55
2022/04/24 07:25:31;;;;;;;8.30;7.30;;;18.20;85.70;;;;;;5052017;28;20025;-55
2022/04/24 07:27:57;;;;;;;9.23;8.30;;;19.00;83.60;;;;;;5052173;28;20101;-55
2022/04/24 07:30:23;;;;;;;9.27;7.53;;;19.70;80.50;;;;;;5067686;28;20466;-55
2022/04/24 07:32:53;;;;;;;9.40;8.40;;;19.50;80.20;;;;;;5051906;28;20138;-55
2022/04/24 07:35:22;;;;;;;8.27;7.47;;;19.70;78.90;;;;;;5051710;28;20040;-55
2022/04/24 07:37:48;;;;;;;9.30;7.07;;;19.90;79.30;;;;;;5052481;28;20504;-56
2022/04/24 07:40:16;;;;;;;8.15;7.45;;;20.40;77.40;;;;;;5051864;28;20037;-57
2022/04/24 07:42:49;;;;;;;10.88;7.60;;;20.30;77.00;;;;;;5052292;28;20029;-58
2022/04/24 07:45:25;;;;;;;8.13;7.32;;;20.90;75.80;;;;;;5050323;28;20067;-56
2022/04/24 07:47:52;;;;;;;8.70;7.90;;;21.00;74.90;;;;;;5066939;28;20059;-57
2022/04/24 07:50:20;;;;;;;8.20;7.50;;;21.10;75.00;;;;;;5051764;28;20063;-58
2022/04/24 07:52:47;;;;;;;7.90;7.20;;;21.40;73.60;;;;;;5051895;28;20040;-58
2022/04/24 07:55:15;;;;;;;8.50;7.63;;;21.80;73.50;;;;;;5050379;28;20029;-58
2022/04/24 07:57:40;;;;;;;10.73;7.85;;;22.70;71.60;;;;;;5051872;28;20028;-58
2022/04/24 08:00:10;;;;;;;8.30;7.55;;;22.40;70.50;;;;;;5051487;28;20021;-58
2022/04/24 08:03:06;;;;;;;10.27;7.60;;;22.10;71.10;;;;;;5051594;28;20099;-57
2022/04/24 08:05:33;;;;;;;8.55;7.80;;;21.90;71.20;;;;;;5050414;28;20039;-57
2022/04/24 08:08:07;;;;;;;9.60;7.70;;;21.90;70.70;;;;;;5051109;28;20035;-58
2022/04/24 08:10:35;;;;;;;9.45;8.40;;;22.30;71.00;;;;;;5050859;28;20043;-58
2022/04/24 08:13:04;;;;;;;9.10;8.20;;;21.90;70.60;;;;;;5049499;28;20035;-57
2022/04/24 08:15:30;;;;;;;8.80;7.85;;;21.40;72.60;;;;;;5050987;28;20021;-58
2022/04/24 08:17:56;;;;;;;10.05;8.23;;;21.80;72.60;;;;;;5051187;28;20031;-58
2022/04/24 08:20:21;;;;;;;8.98;8.18;;;21.30;71.90;;;;;;5050990;28;20032;-56
2022/04/24 08:22:49;;;;;;;14.52;8.85;;;20.80;73.30;;;;;;5050966;28;20048;-58
2022/04/24 08:25:17;;;;;;;8.95;8.02;;;21.30;72.30;;;;;;5051085;28;20029;-58
2022/04/24 08:27:49;;;;;;;9.38;8.48;;;21.60;71.30;;;;;;5051202;28;20025;-58
2022/04/24 08:30:17;;;;;;;9.10;8.20;;;22.20;71.10;;;;;;5051017;28;20036;-58
2022/04/24 08:32:43;;;;;;;9.20;8.10;;;22.00;70.80;;;;;;5050640;28;20028;-57
2022/04/24 08:35:14;;;;;;;10.77;8.70;;;21.20;72.30;;;;;;5050800;28;20398;-57
2022/04/24 08:37:41;;;;;;;8.73;7.82;;;21.30;73.10;;;;;;5051156;28;20401;-58
2022/04/24 08:40:08;;;;;;;9.85;8.30;;;22.20;71.50;;;;;;5066229;28;20525;-57
2022/04/24 08:42:34;;;;;;;10.18;7.68;;;22.80;69.30;;;;;;5066486;28;20509;-57
2022/04/24 08:45:01;;;;;;;8.38;7.68;;;22.90;68.60;;;;;;5050964;28;20378;-58
2022/04/24 08:47:28;;;;;;;9.40;8.50;;;22.80;68.80;;;;;;5050774;28;20462;-58
2022/04/24 08:49:59;;;;;;;11.82;7.88;;;23.30;67.60;;;;;;5050752;28;20023;-57
2022/04/24 08:52:27;;;;;;;9.32;8.00;;;23.10;68.60;;;;;;5051078;28;20257;-58
2022/04/24 08:54:55;;;;;;;8.32;7.50;;;23.50;67.90;;;;;;5051082;28;20017;-57
2022/04/24 08:57:26;;;;;;;8.52;7.82;;;24.00;67.60;;;;;;5050569;28;20116;-58
2022/04/24 08:59:55;;;;;;;12.32;8.10;;;23.50;66.60;;;;;;5051317;28;20017;-57
2022/04/24 09:02:21;;;;;;;10.68;7.35;;;23.30;68.00;;;;;;5049654;28;20100;-57
2022/04/24 09:04:47;;;;;;;9.35;8.35;;;23.50;66.90;;;;;;5048962;28;20312;-57
2022/04/24 09:07:17;;;;;;;11.65;8.85;;;22.70;67.80;;;;;;5049745;28;20135;-57
2022/04/24 09:09:47;;;;;;;10.70;7.57;;;22.40;68.50;;;;;;5050545;28;20025;-57
2022/04/24 09:12:18;;;;;;;8.30;7.60;;;22.60;70.10;;;;;;5050661;28;20083;-57
2022/04/24 09:14:54;;;;;;;8.80;7.65;;;22.40;68.80;;;;;;5050370;28;20386;-57
2022/04/24 09:17:30;;;;;;;8.68;7.88;;;23.00;68.00;;;;;;5050976;28;20025;-57
2022/04/24 09:19:57;;;;;;;9.32;7.88;;;22.90;68.20;;;;;;5049091;28;20037;-57
2022/04/24 09:22:23;;;;;;;8.40;7.70;;;23.10;68.70;;;;;;5050234;28;20029;-57
2022/04/24 09:24:59;;;;;;;12.65;7.97;;;23.50;67.40;;;;;;5050306;28;20040;-57
2022/04/24 09:27:30;;;;;;;8.73;7.82;;;22.60;68.50;;;;;;5050142;28;20480;-57
2022/04/24 09:30:17;;;;;;;8.52;7.65;;;22.70;68.10;;;;;;5050340;28;20017;-57
2022/04/24 09:32:55;;;;;;;8.45;7.47;;;23.10;69.70;;;;;;5049945;28;20043;-56
2022/04/24 09:35:32;;;;;;;8.38;7.60;;;23.40;67.20;;;;;;5050496;28;20394;-57
2022/04/24 09:38:14;;;;;;;15.55;8.10;;;22.90;67.20;;;;;;5050270;28;20048;-58
2022/04/24 09:40:49;;;;;;;10.10;8.25;;;23.50;66.90;;;;;;5050076;28;20103;-58
2022/04/24 09:43:17;;;;;;;8.90;7.97;;;23.40;67.00;;;;;;5050052;28;20033;-58
2022/04/24 09:45:48;;;;;;;17.90;8.63;;;23.60;67.20;;;;;;5053241;28;20067;-58
2022/04/24 09:48:15;;;;;;;8.85;7.78;;;23.50;67.70;;;;;;5053898;28;20513;-58
2022/04/24 09:50:42;;;;;;;8.93;8.02;;;24.20;66.40;;;;;;5053675;28;20033;-58
2022/04/24 09:53:13;;;;;;;8.77;7.90;;;24.50;65.00;;;;;;5054357;28;20035;-58
2022/04/24 09:55:40;;;;;;;8.73;7.82;;;24.00;66.00;;;;;;5053815;28;20029;-58
2022/04/24 09:58:08;;;;;;;10.32;7.18;;;23.30;67.00;;;;;;5053603;28;20029;-58
2022/04/24 10:00:34;;;;;;;7.55;6.85;;;23.50;67.70;;;;;;5054131;28;20112;-58
2022/04/24 10:03:01;;;;;;;7.93;7.22;;;24.00;66.00;;;;;;5054298;28;20037;-58
2022/04/24 10:05:31;;;;;;;11.35;8.60;;;24.00;65.30;;;;;;5053666;28;20014;-58
2022/04/24 10:07:57;;;;;;;10.05;7.50;;;24.00;65.50;;;;;;5053825;28;20075;-59
2022/04/24 10:10:23;;;;;;;7.63;6.93;;;24.10;64.40;;;;;;5054011;28;20385;-58
2022/04/24 10:12:51;;;;;;;8.68;7.22;;;23.90;65.30;;;;;;5053765;28;20029;-58
2022/04/24 10:15:19;;;;;;;7.38;6.70;;;23.60;65.50;;;;;;5054071;28;20028;-57
2022/04/24 10:18:09;;;;;;;11.02;6.25;;;24.00;65.10;;;;;;5053967;28;20052;-58
2022/04/24 10:21:08;;;;;;;9.05;7.10;;;24.30;64.30;;;;;;5054224;28;20036;-58
2022/04/24 10:23:36;;;;;;;9.30;6.80;;;24.40;63.80;;;;;;5053449;28;20039;-58
2022/04/24 10:26:03;;;;;;;7.85;7.10;;;24.40;63.40;;;;;;5053545;28;20022;-57
2022/04/24 10:28:41;;;;;;;8.50;6.50;;;24.10;63.60;;;;;;5053273;28;20017;-57
2022/04/24 10:31:09;;;;;;;7.93;6.47;;;24.50;63.00;;;;;;5053535;28;20083;-58
2022/04/24 10:33:36;;;;;;;7.75;6.88;;;23.70;63.70;;;;;;5053013;28;20040;-57
2022/04/24 10:36:11;;;;;;;6.65;6.05;;;23.50;64.00;;;;;;5051922;28;20075;-58
2022/04/24 10:38:59;;;;;;;7.28;5.97;;;24.00;62.90;;;;;;5053148;28;20037;-59
2022/04/24 10:41:29;;;;;;;9.68;5.82;;;25.10;62.30;;;;;;5052865;28;20055;-57
2022/04/24 10:44:06;;;;;;;6.70;6.03;;;24.90;60.00;;;;;;5053588;28;20474;-58
2022/04/24 10:46:33;;;;;;;8.65;6.05;;;24.80;59.80;;;;;;5053306;28;20028;-57
2022/04/24 10:49:18;;;;;;;7.03;5.68;;;24.70;61.10;;;;;;5053469;28;20025;-58
2022/04/24 10:51:56;;;;;;;8.18;6.55;;;24.90;60.80;;;;;;5053010;28;20036;-58
2022/04/24 10:54:39;;;;;;;10.77;6.10;;;25.20;59.90;;;;;;5052758;28;20026;-58
2022/04/24 10:57:18;;;;;;;6.20;5.60;;;24.60;60.70;;;;;;5052259;28;20032;-58
2022/04/24 10:59:51;;;;;;;5.72;5.22;;;24.50;60.00;;;;;;5053101;28;20123;-57
2022/04/24 11:02:27;;;;;;;7.50;5.60;;;24.70;60.30;;;;;;5052774;28;20028;-57
2022/04/24 11:05:06;;;;;;;6.68;5.63;;;25.10;59.00;;;;;;5052728;28;20050;-58
2022/04/24 11:07:32;;;;;;;6.70;6.10;;;25.50;57.30;;;;;;5052743;28;20049;-58
2022/04/24 11:10:09;;;;;;;6.15;5.60;;;25.20;57.70;;;;;;5052546;28;20055;-57
2022/04/24 11:12:37;;;;;;;7.00;5.78;;;24.80;59.60;;;;;;5052742;28;20095;-59
2022/04/24 11:15:03;;;;;;;7.45;6.30;;;25.30;59.60;;;;;;5052743;28;20025;-57
2022/04/24 11:17:29;;;;;;;9.48;6.90;;;25.80;57.00;;;;;;5052480;28;20079;-57
2022/04/24 11:19:59;;;;;;;6.30;5.70;;;25.80;58.10;;;;;;5052123;28;20021;-58
2022/04/24 11:22:25;;;;;;;6.70;6.00;;;26.00;57.50;;;;;;5052723;28;20036;-58
2022/04/24 11:24:55;;;;;;;6.07;5.07;;;26.10;56.60;;;;;;5052239;28;20021;-58
2022/04/24 11:27:26;;;;;;;8.32;4.28;;;25.90;57.20;;;;;;5052342;28;20040;-59
2022/04/24 11:29:52;;;;;;;6.40;5.53;;;26.50;56.80;;;;;;5052420;28;20032;-58
2022/04/24 11:32:18;;;;;;;5.50;4.90;;;25.80;56.10;;;;;;5050895;28;20402;-58
2022/04/24 11:34:45;;;;;;;5.25;4.75;;;25.50;58.10;;;;;;5051939;28;20060;-57
2022/04/24 11:37:11;;;;;;;6.32;5.25;;;25.80;56.40;;;;;;5052724;28;20032;-57
2022/04/24 11:39:40;;;;;;;5.40;5.00;;;26.10;55.30;;;;;;5051862;28;20118;-59
2022/04/24 11:42:06;;;;;;;7.60;5.50;;;25.60;56.60;;;;;;5051963;28;20044;-57
2022/04/24 11:50:13;;;;;;;5.25;4.78;;;26.00;55.70;;;;;;5052276;28;20032;-57
2022/04/24 11:52:46;;;;;;;5.35;4.72;;;26.10;54.70;;;;;;5050646;28;20418;-57
2022/04/24 11:55:23;;;;;;;6.05;4.90;;;27.30;55.10;;;;;;5050737;28;20474;-58
2022/04/24 11:58:02;;;;;;;7.25;3.92;;;27.40;53.90;;;;;;5051601;28;20104;-58
2022/04/24 12:00:36;;;;;;;6.45;5.03;;;27.30;53.30;;;;;;5051766;28;20485;-57
2022/04/24 12:03:02;;;;;;;6.93;4.57;;;27.00;53.30;;;;;;5051573;28;20116;-57
2022/04/24 12:05:29;;;;;;;6.13;4.57;;;26.50;54.50;;;;;;5051777;28;20067;-57
2022/04/24 12:07:58;;;;;;;7.43;4.60;;;26.70;55.60;;;;;;5050784;28;20049;-57
2022/04/24 12:10:25;;;;;;;7.55;4.50;;;27.20;53.90;;;;;;5051451;28;20033;-57
2022/04/24 12:12:53;;;;;;;5.78;4.38;;;27.50;53.20;;;;;;5051535;28;20110;-57
2022/04/24 12:15:20;;;;;;;5.05;4.65;;;28.10;52.30;;;;;;5051322;28;20035;-57
2022/04/24 12:17:50;;;;;;;4.75;4.28;;;28.30;50.70;;;;;;5051442;28;20060;-57
2022/04/24 12:20:16;;;;;;;7.57;4.47;;;27.70;51.20;;;;;;5051087;28;20029;-57
2022/04/24 12:22:41;;;;;;;4.60;4.10;;;27.20;51.00;;;;;;5051476;28;20033;-57
2022/04/24 12:25:09;;;;;;;7.95;3.70;;;26.90;50.20;;;;;;5050945;28;20048;-57
2022/04/24 12:27:36;;;;;;;5.97;4.15;;;27.00;51.10;;;;;;5050893;28;20063;-57
2022/04/24 12:30:06;;;;;;;5.25;4.60;;;27.50;51.50;;;;;;5050853;28;20049;-57
2022/04/24 12:32:34;;;;;;;7.53;5.30;;;27.30;51.30;;;;;;5051289;28;20515;-57
2022/04/24 12:35:00;;;;;;;6.80;4.53;;;25.90;52.50;;;;;;5050694;28;20048;-57
2022/04/24 12:37:34;;;;;;;6.85;4.13;;;25.10;53.80;;;;;;5050967;28;20036;-57
2022/04/24 12:40:01;;;;;;;6.13;4.63;;;25.40;53.50;;;;;;5050817;28;20025;-57
2022/04/24 12:42:26;;;;;;;6.13;4.75;;;25.50;52.80;;;;;;5051098;28;20037;-57
2022/04/24 12:44:53;;;;;;;6.63;5.00;;;25.80;52.20;;;;;;5050505;28;20029;-57
2022/04/24 12:47:21;;;;;;;5.18;4.40;;;26.20;52.50;;;;;;5065915;28;20393;-57
2022/04/24 12:49:47;;;;;;;5.75;4.45;;;26.90;51.40;;;;;;5065896;28;20017;-57
2022/04/24 12:52:13;;;;;;;6.55;4.63;;;26.30;51.60;;;;;;5049796;28;20044;-57